East Brunswick, New Jersey
Current Conditions -  °F | °C
As of 11:15 AM on Thursday 29 Jan 2015 (Local Time) from KLDJ Reporting Station
Clear Clear  
Wind Chill: 32°   Ceiling: Unl
Heat Index: 32°   Visibility: 10mi
Dew Point:   Wind: 0mph
Humidity: 38%   Direction: NA
Pressure: 30.33"   Gusts: NA
Location:  40.42°N, 74.39°W
Report Text: KLDJ 291615Z AUTO 00000KT 10SM CLR 00/M13 A3033 RMK AO2 T00021128
Loading
Personal Weather Stations






























Interactive Weather Map New forecast layout! Learn more

10-Day Weather Forecast

Advertisements
Track Severe Weather on mobile